sensor_id;sensor_type;location;lat;lon;timestamp;pressure;altitude;pressure_sealevel;temperature
64916;BMP280;51427;-27.442;153.014;2023-05-07T00:01:48;101625.94;;;24.44
64916;BMP280;51427;-27.442;153.014;2023-05-07T00:04:15;101620.56;;;24.47
64916;BMP280;51427;-27.442;153.014;2023-05-07T00:06:43;101617.25;;;24.84
64916;BMP280;51427;-27.442;153.014;2023-05-07T00:09:10;101629.72;;;24.11
64916;BMP280;51427;-27.442;153.014;2023-05-07T00:11:37;101622.91;;;24.20
64916;BMP280;51427;-27.442;153.014;2023-05-07T00:14:04;101626.25;;;24.69
64916;BMP280;51427;-27.442;153.014;2023-05-07T00:16:31;101620.66;;;25.04
64916;BMP280;51427;-27.442;153.014;2023-05-07T00:18:58;101610.94;;;24.98
64916;BMP280;51427;-27.442;153.014;2023-05-07T00:21:26;101612.13;;;24.84
64916;BMP280;51427;-27.442;153.014;2023-05-07T00:23:54;101606.84;;;25.42
64916;BMP280;51427;-27.442;153.014;2023-05-07T00:26:22;101607.72;;;25.05
64916;BMP280;51427;-27.442;153.014;2023-05-07T00:28:49;101601.72;;;24.58
64916;BMP280;51427;-27.442;153.014;2023-05-07T00:31:17;101596.03;;;24.35
64916;BMP280;51427;-27.442;153.014;2023-05-07T00:33:44;101592.84;;;24.71
64916;BMP280;51427;-27.442;153.014;2023-05-07T00:36:11;101583.25;;;24.45
64916;BMP280;51427;-27.442;153.014;2023-05-07T00:38:38;101588.66;;;24.70
64916;BMP280;51427;-27.442;153.014;2023-05-07T00:41:05;101572.38;;;24.80
64916;BMP280;51427;-27.442;153.014;2023-05-07T00:43:33;101579.13;;;24.91
64916;BMP280;51427;-27.442;153.014;2023-05-07T00:46:00;101573.41;;;25.44
64916;BMP280;51427;-27.442;153.014;2023-05-07T00:48:27;101568.63;;;25.12
64916;BMP280;51427;-27.442;153.014;2023-05-07T00:50:55;101565.09;;;24.85
64916;BMP280;51427;-27.442;153.014;2023-05-07T00:53:23;101558.66;;;24.72
64916;BMP280;51427;-27.442;153.014;2023-05-07T00:55:51;101557.41;;;24.48
64916;BMP280;51427;-27.442;153.014;2023-05-07T00:58:18;101550.84;;;24.64
64916;BMP280;51427;-27.442;153.014;2023-05-07T01:00:46;101555.25;;;24.53
64916;BMP280;51427;-27.442;153.014;2023-05-07T01:03:13;101549.47;;;24.79
64916;BMP280;51427;-27.442;153.014;2023-05-07T01:05:41;101546.34;;;24.94
64916;BMP280;51427;-27.442;153.014;2023-05-07T01:08:09;101552.16;;;24.68
64916;BMP280;51427;-27.442;153.014;2023-05-07T01:10:37;101544.34;;;24.88
64916;BMP280;51427;-27.442;153.014;2023-05-07T01:13:05;101543.03;;;25.03
64916;BMP280;51427;-27.442;153.014;2023-05-07T01:15:32;101540.78;;;25.36
64916;BMP280;51427;-27.442;153.014;2023-05-07T01:17:59;101542.97;;;25.31
64916;BMP280;51427;-27.442;153.014;2023-05-07T01:20:28;101534.25;;;25.60
64916;BMP280;51427;-27.442;153.014;2023-05-07T01:22:56;101525.09;;;25.49
64916;BMP280;51427;-27.442;153.014;2023-05-07T01:25:24;101531.66;;;24.87
64916;BMP280;51427;-27.442;153.014;2023-05-07T01:27:52;101516.31;;;24.87
64916;BMP280;51427;-27.442;153.014;2023-05-07T01:30:21;101513.59;;;24.88
64916;BMP280;51427;-27.442;153.014;2023-05-07T01:32:52;101503.63;;;24.95
64916;BMP280;51427;-27.442;153.014;2023-05-07T01:35:22;101502.06;;;25.39
64916;BMP280;51427;-27.442;153.014;2023-05-07T01:37:51;101494.59;;;25.09
64916;BMP280;51427;-27.442;153.014;2023-05-07T01:40:19;101493.81;;;24.71
64916;BMP280;51427;-27.442;153.014;2023-05-07T01:42:46;101479.00;;;24.56
64916;BMP280;51427;-27.442;153.014;2023-05-07T01:45:14;101481.56;;;24.37
64916;BMP280;51427;-27.442;153.014;2023-05-07T01:47:42;101458.28;;;24.40
64916;BMP280;51427;-27.442;153.014;2023-05-07T01:50:11;101476.47;;;24.65
64916;BMP280;51427;-27.442;153.014;2023-05-07T01:52:38;101470.75;;;24.90
64916;BMP280;51427;-27.442;153.014;2023-05-07T01:55:06;101464.09;;;24.42
64916;BMP280;51427;-27.442;153.014;2023-05-07T01:57:34;101464.75;;;24.44
64916;BMP280;51427;-27.442;153.014;2023-05-07T02:00:02;101458.13;;;24.51
64916;BMP280;51427;-27.442;153.014;2023-05-07T02:02:31;101452.63;;;24.46
64916;BMP280;51427;-27.442;153.014;2023-05-07T02:04:59;101438.22;;;24.64
64916;BMP280;51427;-27.442;153.014;2023-05-07T02:07:27;101438.19;;;24.45
64916;BMP280;51427;-27.442;153.014;2023-05-07T02:09:55;101440.38;;;24.40
64916;BMP280;51427;-27.442;153.014;2023-05-07T02:12:22;101424.84;;;24.60
64916;BMP280;51427;-27.442;153.014;2023-05-07T02:14:50;101425.25;;;24.56
64916;BMP280;51427;-27.442;153.014;2023-05-07T02:17:17;101419.16;;;24.76
64916;BMP280;51427;-27.442;153.014;2023-05-07T02:19:44;101415.50;;;24.88
64916;BMP280;51427;-27.442;153.014;2023-05-07T02:22:11;101404.72;;;25.56
64916;BMP280;51427;-27.442;153.014;2023-05-07T02:24:39;101393.00;;;25.81
64916;BMP280;51427;-27.442;153.014;2023-05-07T02:27:06;101395.88;;;25.78
64916;BMP280;51427;-27.442;153.014;2023-05-07T02:29:33;101385.69;;;26.03
64916;BMP280;51427;-27.442;153.014;2023-05-07T02:32:00;101383.03;;;25.95
64916;BMP280;51427;-27.442;153.014;2023-05-07T02:34:27;101382.44;;;25.66
64916;BMP280;51427;-27.442;153.014;2023-05-07T02:36:54;101377.84;;;25.70
64916;BMP280;51427;-27.442;153.014;2023-05-07T02:39:22;101368.16;;;25.81
64916;BMP280;51427;-27.442;153.014;2023-05-07T02:41:49;101361.06;;;25.49
64916;BMP280;51427;-27.442;153.014;2023-05-07T02:44:16;101361.66;;;25.87
64916;BMP280;51427;-27.442;153.014;2023-05-07T02:46:43;101363.63;;;25.75
64916;BMP280;51427;-27.442;153.014;2023-05-07T02:49:10;101351.97;;;25.63
64916;BMP280;51427;-27.442;153.014;2023-05-07T02:51:38;101334.03;;;25.98
64916;BMP280;51427;-27.442;153.014;2023-05-07T02:54:05;101341.00;;;25.61
64916;BMP280;51427;-27.442;153.014;2023-05-07T02:56:33;101322.22;;;25.88
64916;BMP280;51427;-27.442;153.014;2023-05-07T02:59:00;101325.97;;;25.93
64916;BMP280;51427;-27.442;153.014;2023-05-07T03:01:27;101321.44;;;25.87
64916;BMP280;51427;-27.442;153.014;2023-05-07T03:03:54;101323.41;;;25.76
64916;BMP280;51427;-27.442;153.014;2023-05-07T03:06:22;101320.19;;;25.30
64916;BMP280;51427;-27.442;153.014;2023-05-07T03:08:49;101313.72;;;25.26
64916;BMP280;51427;-27.442;153.014;2023-05-07T03:11:16;101316.53;;;25.05
64916;BMP280;51427;-27.442;153.014;2023-05-07T03:13:44;101303.25;;;25.19
64916;BMP280;51427;-27.442;153.014;2023-05-07T03:16:11;101304.16;;;25.28
64916;BMP280;51427;-27.442;153.014;2023-05-07T03:18:38;101302.34;;;25.55
64916;BMP280;51427;-27.442;153.014;2023-05-07T03:21:05;101299.66;;;25.74
64916;BMP280;51427;-27.442;153.014;2023-05-07T03:23:33;101296.28;;;25.91
64916;BMP280;51427;-27.442;153.014;2023-05-07T03:26:00;101296.22;;;26.25
64916;BMP280;51427;-27.442;153.014;2023-05-07T03:28:27;101295.56;;;25.98
64916;BMP280;51427;-27.442;153.014;2023-05-07T03:30:54;101292.47;;;25.95
64916;BMP280;51427;-27.442;153.014;2023-05-07T03:33:21;101280.56;;;25.86
64916;BMP280;51427;-27.442;153.014;2023-05-07T03:35:49;101279.91;;;25.84
64916;BMP280;51427;-27.442;153.014;2023-05-07T03:38:16;101276.22;;;26.54
64916;BMP280;51427;-27.442;153.014;2023-05-07T03:40:43;101280.31;;;26.22
64916;BMP280;51427;-27.442;153.014;2023-05-07T03:43:11;101271.31;;;26.68
64916;BMP280;51427;-27.442;153.014;2023-05-07T03:45:38;101259.69;;;27.54
64916;BMP280;51427;-27.442;153.014;2023-05-07T03:48:05;101258.16;;;27.12
64916;BMP280;51427;-27.442;153.014;2023-05-07T03:50:32;101267.50;;;26.80
64916;BMP280;51427;-27.442;153.014;2023-05-07T03:52:59;101261.41;;;27.30
64916;BMP280;51427;-27.442;153.014;2023-05-07T03:55:27;101259.63;;;27.23
64916;BMP280;51427;-27.442;153.014;2023-05-07T03:57:55;101257.75;;;26.50
64916;BMP280;51427;-27.442;153.014;2023-05-07T04:00:22;101254.13;;;26.36
64916;BMP280;51427;-27.442;153.014;2023-05-07T04:02:50;101252.78;;;26.06
64916;BMP280;51427;-27.442;153.014;2023-05-07T04:05:17;101233.47;;;27.35
64916;BMP280;51427;-27.442;153.014;2023-05-07T04:07:44;101241.09;;;26.95
64916;BMP280;51427;-27.442;153.014;2023-05-07T04:10:11;101232.41;;;26.96
64916;BMP280;51427;-27.442;153.014;2023-05-07T04:12:39;101219.59;;;27.12
64916;BMP280;51427;-27.442;153.014;2023-05-07T04:15:07;101227.31;;;27.12
64916;BMP280;51427;-27.442;153.014;2023-05-07T04:17:34;101219.59;;;27.12
64916;BMP280;51427;-27.442;153.014;2023-05-07T04:20:01;101213.97;;;27.01
64916;BMP280;51427;-27.442;153.014;2023-05-07T04:22:29;101207.31;;;26.83
64916;BMP280;51427;-27.442;153.014;2023-05-07T04:24:56;101210.41;;;26.53
64916;BMP280;51427;-27.442;153.014;2023-05-07T04:27:23;101214.47;;;27.04
64916;BMP280;51427;-27.442;153.014;2023-05-07T04:29:50;101207.03;;;26.93
64916;BMP280;51427;-27.442;153.014;2023-05-07T04:32:17;101211.72;;;25.98
64916;BMP280;51427;-27.442;153.014;2023-05-07T04:34:45;101205.06;;;26.39
64916;BMP280;51427;-27.442;153.014;2023-05-07T04:37:12;101211.50;;;26.17
64916;BMP280;51427;-27.442;153.014;2023-05-07T04:39:39;101207.72;;;27.03
64916;BMP280;51427;-27.442;153.014;2023-05-07T04:42:06;101208.88;;;26.68
64916;BMP280;51427;-27.442;153.014;2023-05-07T04:44:35;101198.06;;;26.90
64916;BMP280;51427;-27.442;153.014;2023-05-07T04:47:03;101188.84;;;27.52
64916;BMP280;51427;-27.442;153.014;2023-05-07T04:49:30;101189.00;;;26.78
64916;BMP280;51427;-27.442;153.014;2023-05-07T04:51:58;101192.63;;;26.59
64916;BMP280;51427;-27.442;153.014;2023-05-07T04:54:25;101196.13;;;26.91
64916;BMP280;51427;-27.442;153.014;2023-05-07T04:56:52;101200.09;;;26.37
64916;BMP280;51427;-27.442;153.014;2023-05-07T04:59:20;101184.34;;;26.73
64916;BMP280;51427;-27.442;153.014;2023-05-07T05:01:47;101172.97;;;26.09
64916;BMP280;51427;-27.442;153.014;2023-05-07T05:04:14;101178.72;;;26.03
64916;BMP280;51427;-27.442;153.014;2023-05-07T05:06:41;101162.72;;;25.59
64916;BMP280;51427;-27.442;153.014;2023-05-07T05:09:09;101172.16;;;25.41
64916;BMP280;51427;-27.442;153.014;2023-05-07T05:11:37;101170.19;;;25.35
64916;BMP280;51427;-27.442;153.014;2023-05-07T05:14:05;101175.25;;;25.10
64916;BMP280;51427;-27.442;153.014;2023-05-07T05:16:32;101180.66;;;25.07
64916;BMP280;51427;-27.442;153.014;2023-05-07T05:19:00;101190.72;;;24.91
64916;BMP280;51427;-27.442;153.014;2023-05-07T05:21:28;101183.56;;;24.95
64916;BMP280;51427;-27.442;153.014;2023-05-07T05:23:55;101178.88;;;24.90
64916;BMP280;51427;-27.442;153.014;2023-05-07T05:26:22;101178.13;;;24.80
64916;BMP280;51427;-27.442;153.014;2023-05-07T05:28:49;101178.09;;;24.63
64916;BMP280;51427;-27.442;153.014;2023-05-07T05:31:17;101188.91;;;24.57
64916;BMP280;51427;-27.442;153.014;2023-05-07T05:33:44;101195.72;;;24.66
64916;BMP280;51427;-27.442;153.014;2023-05-07T05:36:11;101191.19;;;24.60
64916;BMP280;51427;-27.442;153.014;2023-05-07T05:38:40;101186.13;;;24.51
64916;BMP280;51427;-27.442;153.014;2023-05-07T05:41:07;101200.56;;;24.42
64916;BMP280;51427;-27.442;153.014;2023-05-07T05:43:34;101203.13;;;24.42
64916;BMP280;51427;-27.442;153.014;2023-05-07T05:46:01;101210.31;;;24.11
64916;BMP280;51427;-27.442;153.014;2023-05-07T05:48:30;101212.19;;;23.63
64916;BMP280;51427;-27.442;153.014;2023-05-07T05:50:57;101214.00;;;23.23
64916;BMP280;51427;-27.442;153.014;2023-05-07T05:53:24;101225.59;;;22.79
64916;BMP280;51427;-27.442;153.014;2023-05-07T05:55:52;101224.59;;;22.71
64916;BMP280;51427;-27.442;153.014;2023-05-07T05:58:19;101245.53;;;23.04
64916;BMP280;51427;-27.442;153.014;2023-05-07T06:00:46;101273.94;;;23.10
64916;BMP280;51427;-27.442;153.014;2023-05-07T06:03:14;101270.06;;;22.56
64916;BMP280;51427;-27.442;153.014;2023-05-07T06:05:41;101264.09;;;21.85
64916;BMP280;51427;-27.442;153.014;2023-05-07T06:08:09;101245.75;;;21.71
64916;BMP280;51427;-27.442;153.014;2023-05-07T06:10:37;101232.84;;;22.04
64916;BMP280;51427;-27.442;153.014;2023-05-07T06:13:04;101231.66;;;21.67
64916;BMP280;51427;-27.442;153.014;2023-05-07T06:15:31;101242.44;;;21.18
64916;BMP280;51427;-27.442;153.014;2023-05-07T06:17:58;101247.78;;;20.49
64916;BMP280;51427;-27.442;153.014;2023-05-07T06:20:26;101251.25;;;20.59
64916;BMP280;51427;-27.442;153.014;2023-05-07T06:22:53;101257.75;;;21.07
64916;BMP280;51427;-27.442;153.014;2023-05-07T06:25:20;101251.22;;;21.87
64916;BMP280;51427;-27.442;153.014;2023-05-07T06:27:47;101266.97;;;21.92
64916;BMP280;51427;-27.442;153.014;2023-05-07T06:30:14;101272.78;;;21.10
64916;BMP280;51427;-27.442;153.014;2023-05-07T06:32:42;101256.44;;;21.85
64916;BMP280;51427;-27.442;153.014;2023-05-07T06:35:09;101252.66;;;21.07
64916;BMP280;51427;-27.442;153.014;2023-05-07T06:37:36;101258.78;;;21.57
64916;BMP280;51427;-27.442;153.014;2023-05-07T06:40:05;101253.94;;;21.75
64916;BMP280;51427;-27.442;153.014;2023-05-07T06:42:33;101258.44;;;20.98
64916;BMP280;51427;-27.442;153.014;2023-05-07T06:45:00;101267.34;;;20.82
64916;BMP280;51427;-27.442;153.014;2023-05-07T06:47:29;101266.06;;;20.65
64916;BMP280;51427;-27.442;153.014;2023-05-07T06:49:56;101262.63;;;20.66
64916;BMP280;51427;-27.442;153.014;2023-05-07T06:52:23;101262.75;;;21.39
64916;BMP280;51427;-27.442;153.014;2023-05-07T06:54:50;101249.78;;;21.42
64916;BMP280;51427;-27.442;153.014;2023-05-07T06:57:18;101252.22;;;20.91
64916;BMP280;51427;-27.442;153.014;2023-05-07T06:59:45;101249.97;;;20.43
64916;BMP280;51427;-27.442;153.014;2023-05-07T07:02:12;101253.94;;;20.90
64916;BMP280;51427;-27.442;153.014;2023-05-07T07:04:39;101254.47;;;21.16
64916;BMP280;51427;-27.442;153.014;2023-05-07T07:07:08;101246.59;;;21.19
64916;BMP280;51427;-27.442;153.014;2023-05-07T07:09:35;101256.31;;;21.14
64916;BMP280;51427;-27.442;153.014;2023-05-07T07:12:02;101254.28;;;20.86
64916;BMP280;51427;-27.442;153.014;2023-05-07T07:14:30;101261.69;;;20.89
64916;BMP280;51427;-27.442;153.014;2023-05-07T07:16:57;101265.13;;;21.21
64916;BMP280;51427;-27.442;153.014;2023-05-07T07:19:25;101271.13;;;20.65
64916;BMP280;51427;-27.442;153.014;2023-05-07T07:21:53;101268.13;;;20.39
64916;BMP280;51427;-27.442;153.014;2023-05-07T07:24:20;101270.66;;;20.49
64916;BMP280;51427;-27.442;153.014;2023-05-07T07:26:47;101275.28;;;20.44
64916;BMP280;51427;-27.442;153.014;2023-05-07T07:29:14;101278.16;;;20.40
64916;BMP280;51427;-27.442;153.014;2023-05-07T07:31:42;101285.25;;;20.58
64916;BMP280;51427;-27.442;153.014;2023-05-07T07:34:09;101282.94;;;20.55
64916;BMP280;51427;-27.442;153.014;2023-05-07T07:36:36;101288.69;;;20.57
64916;BMP280;51427;-27.442;153.014;2023-05-07T07:39:03;101291.81;;;20.61
64916;BMP280;51427;-27.442;153.014;2023-05-07T07:41:30;101290.31;;;20.47
64916;BMP280;51427;-27.442;153.014;2023-05-07T07:43:57;101290.31;;;20.47
64916;BMP280;51427;-27.442;153.014;2023-05-07T07:46:25;101292.47;;;20.41
64916;BMP280;51427;-27.442;153.014;2023-05-07T07:48:52;101302.88;;;20.38
64916;BMP280;51427;-27.442;153.014;2023-05-07T07:51:20;101309.44;;;20.30
64916;BMP280;51427;-27.442;153.014;2023-05-07T07:53:47;101305.56;;;20.37
64916;BMP280;51427;-27.442;153.014;2023-05-07T07:56:14;101314.81;;;20.48
64916;BMP280;51427;-27.442;153.014;2023-05-07T07:58:41;101327.19;;;20.08
64916;BMP280;51427;-27.442;153.014;2023-05-07T08:01:09;101324.13;;;19.92
64916;BMP280;51427;-27.442;153.014;2023-05-07T08:03:38;101331.78;;;20.37
64916;BMP280;51427;-27.442;153.014;2023-05-07T08:06:05;101332.94;;;20.44
64916;BMP280;51427;-27.442;153.014;2023-05-07T08:08:33;101338.59;;;20.02
64916;BMP280;51427;-27.442;153.014;2023-05-07T08:11:00;101339.84;;;19.97
64916;BMP280;51427;-27.442;153.014;2023-05-07T08:13:27;101349.38;;;20.17
64916;BMP280;51427;-27.442;153.014;2023-05-07T08:15:55;101361.91;;;19.61
64916;BMP280;51427;-27.442;153.014;2023-05-07T08:18:22;101361.13;;;19.71
64916;BMP280;51427;-27.442;153.014;2023-05-07T08:20:51;101373.03;;;19.71
64916;BMP280;51427;-27.442;153.014;2023-05-07T08:23:18;101375.69;;;19.69
64916;BMP280;51427;-27.442;153.014;2023-05-07T08:25:45;101386.63;;;19.47
64916;BMP280;51427;-27.442;153.014;2023-05-07T08:28:12;101380.56;;;19.60
64916;BMP280;51427;-27.442;153.014;2023-05-07T08:30:40;101394.53;;;19.54
64916;BMP280;51427;-27.442;153.014;2023-05-07T08:33:08;101398.78;;;19.42
64916;BMP280;51427;-27.442;153.014;2023-05-07T08:35:36;101401.22;;;19.43
64916;BMP280;51427;-27.442;153.014;2023-05-07T08:38:03;101420.13;;;19.52
64916;BMP280;51427;-27.442;153.014;2023-05-07T08:40:37;101419.38;;;19.50
64916;BMP280;51427;-27.442;153.014;2023-05-07T08:43:08;101421.13;;;19.37
64916;BMP280;51427;-27.442;153.014;2023-05-07T08:45:35;101422.47;;;19.30
64916;BMP280;51427;-27.442;153.014;2023-05-07T08:48:11;101428.22;;;18.95
64916;BMP280;51427;-27.442;153.014;2023-05-07T08:50:41;101443.88;;;19.01
64916;BMP280;51427;-27.442;153.014;2023-05-07T08:53:08;101444.38;;;19.06
64916;BMP280;51427;-27.442;153.014;2023-05-07T08:55:36;101446.72;;;19.09
64916;BMP280;51427;-27.442;153.014;2023-05-07T08:58:03;101454.88;;;19.02
64916;BMP280;51427;-27.442;153.014;2023-05-07T09:00:31;101452.31;;;19.02
64916;BMP280;51427;-27.442;153.014;2023-05-07T09:03:00;101468.09;;;18.80
64916;BMP280;51427;-27.442;153.014;2023-05-07T09:05:27;101466.25;;;18.82
64916;BMP280;51427;-27.442;153.014;2023-05-07T09:07:55;101473.53;;;18.74
64916;BMP280;51427;-27.442;153.014;2023-05-07T09:10:22;101474.66;;;18.70
64916;BMP280;51427;-27.442;153.014;2023-05-07T09:12:49;101472.47;;;18.91
64916;BMP280;51427;-27.442;153.014;2023-05-07T09:15:18;101476.28;;;18.84
64916;BMP280;51427;-27.442;153.014;2023-05-07T09:17:45;101479.50;;;18.73
64916;BMP280;51427;-27.442;153.014;2023-05-07T09:20:13;101488.03;;;18.72
64916;BMP280;51427;-27.442;153.014;2023-05-07T09:22:40;101492.09;;;18.75
64916;BMP280;51427;-27.442;153.014;2023-05-07T09:25:08;101489.41;;;18.64
64916;BMP280;51427;-27.442;153.014;2023-05-07T09:27:36;101496.59;;;18.31
64916;BMP280;51427;-27.442;153.014;2023-05-07T09:30:10;101498.72;;;18.25
64916;BMP280;51427;-27.442;153.014;2023-05-07T09:32:38;101504.16;;;18.45
64916;BMP280;51427;-27.442;153.014;2023-05-07T09:35:05;101508.56;;;18.29
64916;BMP280;51427;-27.442;153.014;2023-05-07T09:37:33;101516.44;;;18.25
64916;BMP280;51427;-27.442;153.014;2023-05-07T09:40:00;101515.38;;;17.87
64916;BMP280;51427;-27.442;153.014;2023-05-07T09:42:29;101522.09;;;18.16
64916;BMP280;51427;-27.442;153.014;2023-05-07T09:44:56;101524.22;;;18.22
64916;BMP280;51427;-27.442;153.014;2023-05-07T09:47:24;101521.06;;;18.18
64916;BMP280;51427;-27.442;153.014;2023-05-07T09:49:56;101531.66;;;17.97
64916;BMP280;51427;-27.442;153.014;2023-05-07T09:52:27;101535.72;;;17.72
64916;BMP280;51427;-27.442;153.014;2023-05-07T09:55:00;101531.13;;;17.78
64916;BMP280;51427;-27.442;153.014;2023-05-07T09:57:27;101535.03;;;17.84
64916;BMP280;51427;-27.442;153.014;2023-05-07T09:59:57;101531.47;;;17.86
64916;BMP280;51427;-27.442;153.014;2023-05-07T10:02:28;101533.38;;;18.24
64916;BMP280;51427;-27.442;153.014;2023-05-07T10:04:56;101534.56;;;18.05
64916;BMP280;51427;-27.442;153.014;2023-05-07T10:07:27;101540.06;;;18.12
64916;BMP280;51427;-27.442;153.014;2023-05-07T10:09:55;101537.28;;;17.88
64916;BMP280;51427;-27.442;153.014;2023-05-07T10:12:23;101535.28;;;17.93
64916;BMP280;51427;-27.442;153.014;2023-05-07T10:14:51;101539.44;;;17.94
64916;BMP280;51427;-27.442;153.014;2023-05-07T10:17:20;101546.75;;;17.99
64916;BMP280;51427;-27.442;153.014;2023-05-07T10:19:50;101546.13;;;17.81
64916;BMP280;51427;-27.442;153.014;2023-05-07T10:22:18;101557.53;;;17.61
64916;BMP280;51427;-27.442;153.014;2023-05-07T10:24:48;101552.03;;;17.82
64916;BMP280;51427;-27.442;153.014;2023-05-07T10:27:16;101561.13;;;17.70
64916;BMP280;51427;-27.442;153.014;2023-05-07T10:30:19;101563.69;;;17.84
64916;BMP280;51427;-27.442;153.014;2023-05-07T10:32:50;101570.00;;;17.77
64916;BMP280;51427;-27.442;153.014;2023-05-07T10:35:21;101574.63;;;17.71
64916;BMP280;51427;-27.442;153.014;2023-05-07T10:37:50;101577.59;;;17.77
64916;BMP280;51427;-27.442;153.014;2023-05-07T10:40:17;101575.59;;;17.55
64916;BMP280;51427;-27.442;153.014;2023-05-07T10:43:03;101589.00;;;17.84
64916;BMP280;51427;-27.442;153.014;2023-05-07T10:45:33;101581.72;;;17.51
64916;BMP280;51427;-27.442;153.014;2023-05-07T10:48:13;101589.06;;;17.83
64916;BMP280;51427;-27.442;153.014;2023-05-07T10:50:42;101591.06;;;17.64
64916;BMP280;51427;-27.442;153.014;2023-05-07T10:55:50;101586.78;;;17.51
64916;BMP280;51427;-27.442;153.014;2023-05-07T10:58:29;101595.97;;;17.38
64916;BMP280;51427;-27.442;153.014;2023-05-07T11:01:01;101600.31;;;17.36
64916;BMP280;51427;-27.442;153.014;2023-05-07T11:03:29;101601.91;;;17.08
64916;BMP280;51427;-27.442;153.014;2023-05-07T11:06:15;101594.47;;;17.49
64916;BMP280;51427;-27.442;153.014;2023-05-07T11:08:57;101591.97;;;17.20
64916;BMP280;51427;-27.442;153.014;2023-05-07T11:11:46;101599.41;;;16.92
64916;BMP280;51427;-27.442;153.014;2023-05-07T11:14:43;101615.66;;;16.58
64916;BMP280;51427;-27.442;153.014;2023-05-07T11:17:11;101621.03;;;16.82
64916;BMP280;51427;-27.442;153.014;2023-05-07T11:19:52;101623.97;;;16.90
64916;BMP280;51427;-27.442;153.014;2023-05-07T11:25:03;101619.78;;;17.20
64916;BMP280;51427;-27.442;153.014;2023-05-07T11:27:31;101629.66;;;16.78
64916;BMP280;51427;-27.442;153.014;2023-05-07T11:29:59;101642.84;;;16.99
64916;BMP280;51427;-27.442;153.014;2023-05-07T11:32:31;101645.31;;;16.70
64916;BMP280;51427;-27.442;153.014;2023-05-07T11:35:00;101650.28;;;16.86
64916;BMP280;51427;-27.442;153.014;2023-05-07T11:37:28;101651.16;;;16.85
64916;BMP280;51427;-27.442;153.014;2023-05-07T11:40:06;101652.31;;;16.17
64916;BMP280;51427;-27.442;153.014;2023-05-07T11:42:37;101648.44;;;16.27
64916;BMP280;51427;-27.442;153.014;2023-05-07T11:45:05;101649.16;;;16.29
64916;BMP280;51427;-27.442;153.014;2023-05-07T11:47:33;101650.50;;;16.36
64916;BMP280;51427;-27.442;153.014;2023-05-07T11:50:06;101638.22;;;16.61
64916;BMP280;51427;-27.442;153.014;2023-05-07T11:52:34;101641.34;;;16.81
64916;BMP280;51427;-27.442;153.014;2023-05-07T11:55:02;101653.56;;;16.58
64916;BMP280;51427;-27.442;153.014;2023-05-07T11:57:32;101660.19;;;16.28
64916;BMP280;51427;-27.442;153.014;2023-05-07T12:00:01;101655.31;;;15.75
64916;BMP280;51427;-27.442;153.014;2023-05-07T12:02:30;101662.28;;;15.86
64916;BMP280;51427;-27.442;153.014;2023-05-07T12:04:57;101654.28;;;15.95
64916;BMP280;51427;-27.442;153.014;2023-05-07T12:07:27;101663.38;;;16.15
64916;BMP280;51427;-27.442;153.014;2023-05-07T12:09:54;101663.91;;;16.04
64916;BMP280;51427;-27.442;153.014;2023-05-07T12:12:21;101672.09;;;15.92
64916;BMP280;51427;-27.442;153.014;2023-05-07T12:14:49;101664.47;;;16.26
64916;BMP280;51427;-27.442;153.014;2023-05-07T12:17:16;101675.78;;;15.85
64916;BMP280;51427;-27.442;153.014;2023-05-07T12:19:45;101675.50;;;15.41
64916;BMP280;51427;-27.442;153.014;2023-05-07T12:22:13;101678.03;;;15.91
64916;BMP280;51427;-27.442;153.014;2023-05-07T12:24:48;101670.31;;;15.78
64916;BMP280;51427;-27.442;153.014;2023-05-07T12:27:16;101679.94;;;15.53
64916;BMP280;51427;-27.442;153.014;2023-05-07T12:29:48;101684.91;;;15.54
64916;BMP280;51427;-27.442;153.014;2023-05-07T12:32:17;101689.69;;;15.60
64916;BMP280;51427;-27.442;153.014;2023-05-07T12:34:45;101691.16;;;15.81
64916;BMP280;51427;-27.442;153.014;2023-05-07T12:37:13;101680.53;;;15.75
64916;BMP280;51427;-27.442;153.014;2023-05-07T12:40:03;101693.03;;;15.78
64916;BMP280;51427;-27.442;153.014;2023-05-07T12:42:40;101694.06;;;15.74
64916;BMP280;51427;-27.442;153.014;2023-05-07T12:45:10;101692.78;;;15.65
64916;BMP280;51427;-27.442;153.014;2023-05-07T12:47:37;101689.69;;;15.60
64916;BMP280;51427;-27.442;153.014;2023-05-07T12:50:08;101697.91;;;15.81
64916;BMP280;51427;-27.442;153.014;2023-05-07T12:52:35;101696.13;;;15.99
64916;BMP280;51427;-27.442;153.014;2023-05-07T12:55:07;101698.66;;;15.99
64916;BMP280;51427;-27.442;153.014;2023-05-07T12:57:48;101702.06;;;16.15
64916;BMP280;51427;-27.442;153.014;2023-05-07T13:00:18;101706.84;;;16.21
64916;BMP280;51427;-27.442;153.014;2023-05-07T13:02:58;101697.47;;;15.73
64916;BMP280;51427;-27.442;153.014;2023-05-07T13:05:26;101702.91;;;15.82
64916;BMP280;51427;-27.442;153.014;2023-05-07T13:07:56;101703.19;;;16.10
64916;BMP280;51427;-27.442;153.014;2023-05-07T13:10:24;101710.03;;;15.74
64916;BMP280;51427;-27.442;153.014;2023-05-07T13:12:52;101705.06;;;15.73
64916;BMP280;51427;-27.442;153.014;2023-05-07T13:15:19;101707.22;;;15.80
64916;BMP280;51427;-27.442;153.014;2023-05-07T13:17:47;101699.50;;;15.83
64916;BMP280;51427;-27.442;153.014;2023-05-07T13:20:14;101714.97;;;15.59
64916;BMP280;51427;-27.442;153.014;2023-05-07T13:22:41;101697.03;;;15.65
64916;BMP280;51427;-27.442;153.014;2023-05-07T13:25:09;101696.91;;;15.33
64916;BMP280;51427;-27.442;153.014;2023-05-07T13:27:36;101694.41;;;15.49
64916;BMP280;51427;-27.442;153.014;2023-05-07T13:30:04;101706.09;;;15.52
64916;BMP280;51427;-27.442;153.014;2023-05-07T13:32:33;101707.69;;;15.53
64916;BMP280;51427;-27.442;153.014;2023-05-07T13:35:00;101698.41;;;15.37